Weather observations for the past three days for
Claremore, Claremore Regional Airport
Imperial (Metric)
Date Time (cdt) Wind (mph) Vis. (mi.) Weather Sky Cond. Temperature (ºF) Relative Humidity Wind Chill (°F) Heat Index (°F) Pressure Precipitation (in)
Air Dwpt 6 hour altimeter (in) sea level (mb) 1 hr 3 hr 6 hr
Max. Min.
06 03:35 Calm 10.00 Mostly Cloudy BKN085 75.2 69.8 83% 75 29.9 0.0
06 03:15 Calm 10.00 Fair CLR 75.2 69.8 83% 75 29.9 0.0
06 02:55 Calm 10.00 Fair CLR 77 69.8 79% 79 29.89 0.0
06 02:35 NE 3 10.00 Fair CLR 77 69.8 79% 79 29.89 0.0
06 02:15 E 3 10.00 Fair CLR 77 69.8 79% 79 29.9 0.0
06 01:55 Calm 10.00 Fair CLR 77 71.6 83% 78 29.9 0.0
06 01:35 Calm 10.00 A Few Clouds FEW085 78.8 69.8 74% 81 29.9 0.0
06 01:15 Calm 10.00 A Few Clouds FEW090 78.8 71.6 79% 82 29.9 0.0
06 00:55 Calm 10.00 Mostly Cloudy BKN085 78.8 69.8 74% 81 29.9 0.0
06 00:35 Calm 10.00 Mostly Cloudy BKN080 80.6 69.8 70% 84 29.9 0.0
06 00:15 Calm 10.00 A Few Clouds FEW085 78.8 71.6 79% 82 29.9 0.0
05 23:55 Calm 10.00 A Few Clouds FEW085 80.6 71.6 74% 85 29.89 0.0
05 23:35 NE 3 10.00 Partly Cloudy SCT085 78.8 71.6 79% 82 29.89 0.0
05 23:15 NE 3 10.00 Partly Cloudy SCT085 80.6 71.6 74% 85 29.89 0.0
05 22:55 Calm 10.00 Mostly Cloudy BKN090 80.6 73.4 79% 85 29.89 0.0
05 22:35 Calm 10.00 Mostly Cloudy BKN090 80.6 71.6 74% 85 29.89 0.0
05 22:15 Calm 10.00 Partly Cloudy SCT090 82.4 71.6 70% 87 29.89 0.0
05 21:55 NE 3 10.00 Partly Cloudy SCT090 80.6 71.6 74% 85 29.88 0.0
05 21:35 Calm 10.00 Mostly Cloudy BKN090 82.4 71.6 70% 87 29.88 0.0
05 21:15 Calm 10.00 Partly Cloudy SCT085 82.4 69.8 66% 86 29.87 0.0
05 20:55 Calm 10.00 Partly Cloudy SCT085 86 69.8 59% 91 29.87 0.0
05 20:35 Calm 10.00 Fair CLR 86 69.8 59% 91 29.86 0.0
05 20:15 Calm 10.00 Fair CLR 87.8 68 52% 91 29.86 0.0
05 19:55 Calm 10.00 Fair CLR 91.4 68 46% 96 29.85 0.0
05 19:35 W 3 10.00 Fair CLR 93.2 69.8 47% 99 29.85 0.0
05 19:15 Calm 10.00 Fair CLR 96.8 68 39% 102 29.85 0.0
05 18:55 Calm 10.00 Fair CLR 98.6 66.2 35% 103 29.85 0.0
05 18:35 W 3 10.00 Fair CLR 100.4 66.2 33% 105 29.84 0.0
05 18:15 Calm 10.00 Fair CLR 100.4 66.2 33% 105 29.84 0.0
05 17:55 Vrbl 5 10.00 Fair CLR 100.4 66.2 33% 105 29.84 0.0
05 17:35 SW 7 10.00 Fair CLR 102.2 66.2 31% 107 29.84 0.0
05 17:15 Vrbl 6 10.00 A Few Clouds FEW080 102.2 66.2 31% 107 29.85 0.0
05 16:55 Calm 10.00 A Few Clouds FEW080 102.2 66.2 31% 107 29.85 0.0
05 16:35 Calm 10.00 Fair CLR 102.2 64.4 29% 106 29.86 0.0
05 16:15 S 10 10.00 Fair CLR 102.2 66.2 31% 107 29.87 0.0
05 15:55 Vrbl 7 G 13 10.00 Fair CLR 102.2 66.2 31% 107 29.88 0.0
05 15:35 Calm 10.00 Fair CLR 100.4 64.4 31% 104 29.88 0.0
05 15:15 S 6 G 15 10.00 Fair CLR 102.2 64.4 29% 106 29.9 0.0
05 14:55 Vrbl 3 10.00 Fair CLR 100.4 66.2 33% 105 29.91 0.0
05 12:55 Vrbl 6 10.00 Fair CLR 98.6 68 37% 104 29.95 0.0
05 12:35 Vrbl 7 G 13 10.00 Fair CLR 98.6 68 37% 104 29.95 0.0
05 12:15 S 6 10.00 Fair CLR 96.8 69.8 42% 103 29.96 0.0
05 11:55 Calm 10.00 Fair CLR 96.8 68 39% 102 29.97 0.0
05 11:35 S 7 10.00 Fair CLR 96.8 68 39% 102 29.98 0.0
05 11:15 Calm 10.00 Fair CLR 95 69.8 44% 101 29.98 0.0
05 10:55 Calm 10.00 A Few Clouds FEW085 93.2 69.8 47% 99 29.98 0.0
05 10:35 Vrbl 5 10.00 Partly Cloudy SCT085 93.2 69.8 47% 99 29.98 0.0
05 10:15 Calm 10.00 Fair CLR 91.4 69.8 49% 97 29.97 0.0
05 09:55 Vrbl 5 10.00 Fair CLR 91.4 69.8 49% 97 29.97 0.0
05 09:35 SW 5 10.00 Fair CLR 89.6 71.6 55% 96 29.97 0.0
05 09:15 Vrbl 5 10.00 Fair CLR 87.8 71.6 59% 94 29.97 0.0
05 08:55 S 6 10.00 Fair CLR 84.2 71.6 66% 90 29.97 0.0
05 08:35 S 6 10.00 Fair CLR 84.2 71.6 66% 90 29.96 0.0
05 08:15 Calm 10.00 Fair CLR 80.6 71.6 74% 85 29.96 0.0
05 07:55 Calm 10.00 Fair CLR 78.8 71.6 79% 82 29.96 0.0
05 07:35 Calm 10.00 Fair CLR 73.4 69.8 89% 29.95 0.0
05 07:15 Calm 10.00 Fair CLR 71.6 69.8 94% 29.95 0.0
05 06:55 Calm 10.00 Fair CLR 71.6 68 88% 29.94 0.0
05 06:35 Calm 10.00 Fair CLR 71.6 69.8 94% 29.94 0.0
05 06:15 Calm 10.00 Fair CLR 75.2 69.8 83% 75 29.94 0.0
05 05:55 Calm 10.00 Fair CLR 73.4 69.8 89% 29.94 0.0
05 05:35 Calm 10.00 Fair CLR 73.4 69.8 89% 29.93 0.0
05 05:15 Calm 10.00 Fair CLR 71.6 69.8 94% 29.93 0.0
05 04:55 Calm 10.00 Fair CLR 73.4 69.8 89% 29.93 0.0
05 04:35 Calm 10.00 Fair CLR 73.4 69.8 89% 29.93 0.0
05 04:15 Calm 10.00 Fair CLR 73.4 69.8 89% 29.93 0.0
05 03:55 Calm 10.00 Fair CLR 73.4 69.8 89% 29.93 0.0
05 03:35 SE 3 10.00 Fair CLR 75.2 69.8 83% 75 29.92 0.0
05 03:15 Calm 10.00 Fair CLR 75.2 69.8 83% 75 29.92 0.0
05 02:55 Calm 10.00 Partly Cloudy SCT075 75.2 69.8 83% 75 29.92 0.0
05 02:35 Calm 9.00 A Few Clouds FEW075 78.8 68 70% 81 29.92 0.0
05 02:15 SE 5 10.00 Fair CLR 80.6 68 66% 83 29.92 0.0
05 01:55 SE 7 10.00 Fair CLR 80.6 68 66% 83 29.93 0.0
05 01:35 SE 5 10.00 Fair CLR 80.6 68 66% 83 29.92 0.0
05 01:15 SE 3 10.00 Fair CLR 82.4 68 62% 85 29.93 0.0
05 00:55 SE 5 10.00 Fair CLR 82.4 68 62% 85 29.92 0.0
05 00:35 Calm 10.00 A Few Clouds FEW080 82.4 68 62% 85 29.93 0.0
05 00:15 SE 5 10.00 Partly Cloudy SCT080 82.4 68 62% 85 29.92 0.0
04 23:55 SE 8 10.00 Mostly Cloudy BKN080 82.4 68 62% 85 29.92 0.0
04 23:35 Calm 10.00 A Few Clouds FEW080 78.8 69.8 74% 81 29.92 0.0
04 23:15 E 3 10.00 Partly Cloudy SCT085 80.6 69.8 70% 84 29.92 0.0
04 22:55 Calm 10.00 Partly Cloudy SCT085 78.8 71.6 79% 82 29.92 0.0
04 22:35 Calm 10.00 Fair CLR 78.8 69.8 74% 81 29.91 0.0
04 22:15 W 5 10.00 Fair CLR 80.6 69.8 70% 84 29.91 0.0
04 21:55 Calm 10.00 Fair CLR 80.6 69.8 70% 84 29.9 0.0
04 21:35 Calm 10.00 Fair CLR 80.6 69.8 70% 84 29.9 0.0
04 21:15 Calm 10.00 Fair CLR 82.4 69.8 66% 86 29.89 0.0
04 20:55 Calm 10.00 Fair CLR 84.2 68 58% 87 29.88 0.0
04 20:35 Calm 10.00 Fair CLR 87.8 68 52% 91 29.87 0.0
04 20:15 SE 3 10.00 Fair CLR 89.6 68 49% 93 29.87 0.0
04 19:55 SE 3 10.00 Fair CLR 89.6 68 49% 93 29.87 0.0
04 19:35 SE 5 10.00 Fair CLR 93.2 68 44% 98 29.86 0.0
04 19:15 SE 3 10.00 Fair CLR 95 68 41% 100 29.86 0.0
04 18:55 SE 5 10.00 Fair CLR 96.8 66.2 37% 100 29.86 0.0
04 18:35 S 8 10.00 Fair CLR 98.6 66.2 35% 103 29.86 0.0
04 18:15 S 10 10.00 Fair CLR 98.6 66.2 35% 103 29.86 0.0
04 17:55 Vrbl 7 G 14 10.00 Fair CLR 98.6 66.2 35% 103 29.87 0.0
04 17:35 S 8 10.00 Fair CLR 100.4 66.2 33% 105 29.87 0.0
04 17:15 S 9 G 16 10.00 Fair CLR 100.4 66.2 33% 105 29.87 0.0
04 16:55 SE 10 10.00 Fair CLR 100.4 66.2 33% 105 29.87 0.0
04 16:35 S 9 G 18 10.00 Fair CLR 100.4 66.2 33% 105 29.88 0.0
04 16:15 S 10 G 17 10.00 Fair CLR 100.4 66.2 33% 105 29.88 0.0
04 15:55 Vrbl 6 G 17 10.00 Fair CLR 100.4 66.2 33% 105 29.89 0.0
04 15:35 Vrbl 7 G 16 10.00 Fair CLR 100.4 66.2 33% 105 29.89 0.0
04 15:15 S 13 G 21 10.00 Fair CLR 98.6 68 37% 104 29.9 0.0
04 14:55 S 12 10.00 Fair CLR 98.6 68 37% 104 29.91 0.0
04 14:35 S 12 G 20 10.00 Fair CLR 98.6 66.2 35% 103 29.92 0.0
04 14:15 S 8 G 17 10.00 Fair CLR 98.6 68 37% 104 29.92 0.0
04 13:55 S 10 G 17 10.00 Fair CLR 98.6 68 37% 104 29.93 0.0
04 13:35 Vrbl 6 G 18 10.00 Fair CLR 96.8 68 39% 102 29.93 0.0
04 13:15 S 9 G 18 10.00 Fair CLR 96.8 68 39% 102 29.94 0.0
04 12:55 S 13 10.00 Fair CLR 95 69.8 44% 101 29.95 0.0
04 12:35 S 10 G 18 10.00 Fair CLR 95 68 41% 100 29.96 0.0
04 12:15 S 10 G 25 10.00 Fair CLR 95 69.8 44% 101 29.96 0.0
04 11:55 S 13 G 22 10.00 Fair CLR 93.2 68 44% 98 29.97 0.0
04 11:35 S 12 G 21 10.00 Fair CLR 93.2 69.8 47% 99 29.97 0.0
04 11:15 S 10 G 18 10.00 Fair CLR 91.4 69.8 49% 97 29.97 0.0
04 10:55 S 12 G 18 10.00 Fair CLR 91.4 69.8 49% 97 29.97 0.0
04 10:35 S 12 10.00 Fair CLR 89.6 69.8 52% 95 29.98 0.0
04 10:15 S 12 G 18 10.00 Fair CLR 89.6 71.6 55% 96 29.98 0.0
04 09:55 S 9 10.00 Fair CLR 87.8 71.6 59% 94 29.98 0.0
04 09:35 S 10 G 17 10.00 Fair CLR 86 71.6 62% 92 29.97 0.0
04 09:15 S 9 10.00 Fair CLR 84.2 71.6 66% 90 29.98 0.0
04 08:55 S 7 10.00 Fair CLR 82.4 71.6 70% 87 29.98 0.0
04 08:35 S 9 10.00 Fair CLR 80.6 71.6 74% 85 29.97 0.0
04 08:15 Vrbl 5 10.00 Fair CLR 78.8 71.6 79% 82 29.97 0.0
04 07:55 Calm 10.00 Fair CLR 77 71.6 83% 78 29.97 0.0
04 07:35 SE 6 10.00 Fair CLR 75.2 71.6 89% 75 29.96 0.0
04 07:15 SE 5 10.00 Fair CLR 73.4 71.6 94% 29.96 0.0
04 06:55 SE 3 10.00 Fair CLR 71.6 69.8 94% 29.96 0.0
04 06:35 Calm 10.00 Fair CLR 71.6 69.8 94% 29.96 0.0
04 06:15 Calm 10.00 Fair CLR 73.4 69.8 89% 29.95 0.0
04 05:55 SE 5 10.00 Fair CLR 73.4 71.6 94% 29.95 0.0
04 05:35 SE 5 10.00 Fair CLR 75.2 71.6 89% 75 29.94 0.0
04 05:15 SE 5 10.00 Fair CLR 73.4 69.8 89% 29.94 0.0
04 04:55 Calm 10.00 Fair CLR 73.4 69.8 89% 29.94 0.0
04 04:35 Calm 10.00 Fair CLR 73.4 69.8 89% 29.93 0.0
04 04:15 Calm 10.00 Fair CLR 75.2 71.6 89% 75 29.93 0.0
04 03:55 S 6 10.00 Fair CLR 75.2 69.8 83% 75 29.92 0.0
04 03:35 S 5 10.00 Fair CLR 75.2 69.8 83% 75 29.92 0.0
04 03:15 S 6 10.00 Fair CLR 75.2 69.8 83% 75 29.92 0.0
04 02:55 S 6 10.00 Fair CLR 75.2 69.8 83% 75 29.92 0.0
04 02:35 S 6 10.00 Fair CLR 77 69.8 79% 79 29.92 0.0
04 02:15 SE 5 10.00 Fair CLR 77 69.8 79% 79 29.92 0.0
04 01:55 SE 5 10.00 Fair CLR 77 69.8 79% 79 29.92 0.0
04 01:35 SE 5 10.00 Fair CLR 77 69.8 79% 79 29.92 0.0
04 01:15 SE 5 10.00 Fair CLR 78.8 69.8 74% 81 29.92 0.0
04 00:55 SE 6 10.00 Fair CLR 78.8 69.8 74% 81 29.92 0.0
04 00:35 S 6 10.00 Fair CLR 78.8 69.8 74% 81 29.92 0.0
04 00:15 S 6 10.00 Fair CLR 78.8 69.8 74% 81 29.91 0.0
03 23:55 S 6 10.00 Fair CLR 78.8 69.8 74% 81 29.91 0.0
03 23:35 S 7 10.00 Fair CLR 80.6 69.8 70% 84 29.91 0.0
03 23:15 S 6 10.00 Fair CLR 80.6 68 66% 83 29.91 0.0
03 22:55 SE 5 10.00 Fair CLR 80.6 68 66% 83 29.91 0.0
03 22:35 SE 5 10.00 Fair CLR 82.4 68 62% 85 29.91 0.0
03 22:15 SE 5 10.00 Fair CLR 82.4 68 62% 85 29.9 0.0
03 21:55 S 6 10.00 Fair CLR 84.2 68 58% 87 29.9 0.0
03 21:35 S 6 10.00 Fair CLR 84.2 68 58% 87 29.89 0.0
03 21:15 S 7 10.00 Fair CLR 84.2 68 58% 87 29.88 0.0
03 20:55 S 6 10.00 Fair CLR 86 68 55% 89 29.87 0.0
03 20:35 S 5 10.00 Fair CLR 86 68 55% 89 29.87 0.0
03 20:15 S 6 10.00 Fair CLR 86 69.8 59% 91 29.86 0.0
03 19:55 S 7 10.00 Fair CLR 89.6 68 49% 93 29.86 0.0
03 19:35 S 7 10.00 Fair CLR 91.4 68 46% 96 29.86 0.0
03 19:15 S 7 G 13 10.00 Fair CLR 93.2 68 44% 98 29.85 0.0
03 18:55 S 7 10.00 Fair CLR 95 69.8 44% 101 29.85 0.0
03 18:35 S 10 10.00 Fair CLR 95 69.8 44% 101 29.85 0.0
03 18:15 S 9 G 18 10.00 Fair CLR 96.8 68 39% 102 29.85 0.0
03 17:35 S 12 G 22 10.00 Fair CLR 98.6 69.8 39% 106 29.85 0.0
03 17:15 S 12 G 18 10.00 Fair CLR 98.6 69.8 39% 106 29.85 0.0
03 16:55 S 13 G 22 10.00 Fair CLR 98.6 69.8 39% 106 29.85 0.0
03 16:35 S 12 G 18 10.00 Fair CLR 98.6 69.8 39% 106 29.86 0.0
03 16:15 S 16 G 23 10.00 Fair CLR 98.6 69.8 39% 106 29.86 0.0
03 14:10 S 8 G 20 10.00 Fair CLR 96.8 69.8 42% 103 29.9 0.0
03 13:55 S 10 G 17 10.00 Fair CLR 96.8 69.8 42% 103 29.9 0.0
03 13:35 S 13 G 21 10.00 Fair CLR 96.8 69.8 42% 103 29.91 0.0
03 13:15 S 14 G 23 10.00 Fair CLR 96.8 69.8 42% 103 29.92 0.0
03 12:55 S 14 G 21 10.00 Fair CLR 96.8 69.8 42% 103 29.93 0.0
03 12:35 S 13 G 21 10.00 Fair CLR 95 69.8 44% 101 29.93 0.0
03 12:15 S 16 10.00 Fair CLR 93.2 69.8 47% 99 29.94 0.0
03 11:55 S 13 10.00 Fair CLR 93.2 71.6 50% 101 29.94 0.0
03 11:35 S 13 G 20 10.00 Fair CLR 91.4 69.8 49% 97 29.95 0.0
03 11:15 S 13 G 18 10.00 Fair CLR 91.4 71.6 52% 99 29.96 0.0
03 10:55 S 14 G 22 10.00 Fair CLR 89.6 71.6 55% 96 29.96 0.0
03 10:35 S 13 10.00 Fair CLR 87.8 71.6 59% 94 29.96 0.0
03 10:15 S 13 G 20 10.00 Fair CLR 87.8 71.6 59% 94 29.97 0.0
03 09:55 S 12 G 18 10.00 Fair CLR 86 71.6 62% 92 29.97 0.0
03 09:35 S 12 G 18 10.00 Fair CLR 86 71.6 62% 92 29.97 0.0
03 09:15 S 12 G 18 10.00 Fair CLR 84.2 71.6 66% 90 29.98 0.0
03 08:55 S 12 10.00 Fair CLR 84.2 71.6 66% 90 29.98 0.0
03 08:35 S 8 10.00 Fair CLR 80.6 71.6 74% 85 29.98 0.0
03 08:15 S 9 10.00 Fair CLR 80.6 71.6 74% 85 29.98 0.0
03 07:55 SE 6 10.00 Fair CLR 78.8 71.6 79% 82 29.98 0.0
03 07:35 Calm 10.00 Fair CLR 75.2 69.8 83% 75 29.98 0.0
03 07:15 SE 5 10.00 Fair CLR 73.4 69.8 89% 29.97 0.0
03 06:55 SE 5 10.00 Fair CLR 75.2 69.8 83% 75 29.97 0.0
03 06:35 SE 6 10.00 Fair CLR 75.2 69.8 83% 75 29.96 0.0
03 06:15 SE 6 10.00 Fair CLR 75.2 69.8 83% 75 29.96 0.0
03 05:55 SE 6 10.00 Fair CLR 75.2 69.8 83% 75 29.96 0.0
03 05:35 SE 3 10.00 Fair CLR 75.2 69.8 83% 75 29.95 0.0
03 05:15 Calm 10.00 Fair CLR 77 69.8 79% 79 29.95 0.0
03 04:55 SE 5 10.00 Fair CLR 75.2 69.8 83% 75 29.95 0.0
03 04:35 Calm 10.00 Fair CLR 75.2 68 78% 76 29.95 0.0
03 04:15 Calm 10.00 Fair CLR 77 68 74% 79 29.95 0.0
03 03:55 S 5 10.00 Fair CLR 77 68 74% 79 29.95 0.0
Date Time (cdt) Wind (mph) Vis. (mi.) Weather Sky Cond. Air Dwpt Max. Min. Relative Humidity Wind Chill (°F) Heat Index (°F) altimeter (in) sea level (mb) 1 hr 3 hr 6 hr
6 hour
Temperature (ºF) Pressure Precipitation (in)